Time;durP1;ratioP1;P1;durP2;ratioP2;P2;SDS_P1;SDS_P2;PMS_P1;PMS_P2;Temp;Humidity;BMP_temperature;BMP_pressure;BME280_temperature;BME280_humidity;BME280_pressure;Samples;Min_cycle;Max_cycle;Signal;HPM_P1;HPM_P2
2021/06/04 00:04:25;;;;;;;10.40;5.50;;;;;;;14.70;53.56;101362.31;3602124;80;26008;-82
2021/06/04 00:09:26;;;;;;;10.13;4.60;;;;;;;14.65;53.72;101360.46;3591894;79;98917;-83
2021/06/04 00:14:39;;;;;;;12.60;5.30;;;;;;;14.60;53.84;101353.30;3599731;79;35542;-84
2021/06/04 00:19:42;;;;;;;11.70;5.60;;;;;;;14.54;53.98;101352.06;3615645;80;99014;-83
2021/06/04 00:24:46;;;;;;;9.28;5.42;;;;;;;14.47;54.23;101349.23;3618693;80;32977;-83
2021/06/04 00:29:47;;;;;;;9.77;5.13;;;;;;;14.44;54.28;101349.98;3599363;79;99045;-83
2021/06/04 00:34:48;;;;;;;10.00;5.67;;;;;;;14.31;54.57;101341.75;3608753;80;26846;-84
2021/06/04 00:39:49;;;;;;;12.63;5.13;;;;;;;14.33;54.56;101356.00;3609522;80;98634;-83
2021/06/04 00:44:55;;;;;;;12.07;4.80;;;;;;;14.28;54.56;101358.33;3621521;80;26397;-84
2021/06/04 00:49:56;;;;;;;9.73;5.47;;;;;;;14.23;54.89;101356.67;3604646;80;98735;-84
2021/06/04 00:54:59;;;;;;;12.13;5.37;;;;;;;14.12;55.02;101347.42;3611823;79;26168;-84
2021/06/04 01:00:04;;;;;;;10.68;5.55;;;;;;;14.12;55.20;101360.48;3630655;78;98813;-84
2021/06/04 01:05:08;;;;;;;13.05;5.28;;;;;;;14.06;55.25;101362.78;3614587;80;30475;-83
2021/06/04 01:10:30;;;;;;;9.08;4.83;;;;;;;14.04;55.00;101360.18;3610710;80;98942;-84
2021/06/04 01:15:36;;;;;;;12.40;4.97;;;;;;;13.98;55.21;101355.58;3616422;80;31727;-84
2021/06/04 01:20:49;;;;;;;;;;;;;;;13.92;55.43;101346.02;3597664;80;98681;-83
2021/06/04 01:26:01;;;;;;;12.50;5.42;;;;;;;13.87;56.20;101343.59;3575395;80;31656;-84
2021/06/04 01:31:24;;;;;;;9.15;4.78;;;;;;;13.81;55.80;101341.52;3585042;80;99380;-83
2021/06/04 01:36:31;;;;;;;8.73;5.07;;;;;;;13.76;56.12;101345.42;3599225;80;28623;-84
2021/06/04 01:41:33;;;;;;;10.32;5.37;;;;;;;13.73;56.14;101339.25;3583740;79;98583;-84
2021/06/04 01:46:40;;;;;;;10.75;5.55;;;;;;;13.71;56.53;101342.17;3593041;79;31672;-83
2021/06/04 01:51:50;;;;;;;10.68;5.17;;;;;;;13.70;56.68;101343.36;3591556;79;98899;-84
2021/06/04 01:56:56;;;;;;;9.40;5.12;;;;;;;13.66;57.02;101342.50;3594888;80;32279;-84
2021/06/04 02:01:59;;;;;;;9.75;5.25;;;;;;;13.62;57.00;101344.45;3578197;78;98600;-83
2021/06/04 02:07:03;;;;;;;9.63;5.93;;;;;;;13.59;57.11;101341.84;3582850;79;30433;-83
2021/06/04 02:12:06;;;;;;;10.50;6.10;;;;;;;13.40;57.77;101321.83;3593120;79;98496;-84
2021/06/04 02:17:50;;;;;;;12.35;6.15;;;;;;;13.40;57.77;101321.83;3598836;80;31681;-83
2021/06/04 02:23:20;;;;;;;10.70;6.15;;;;;;;13.43;58.13;101341.80;3609578;80;30936;-83
2021/06/04 02:28:30;;;;;;;10.53;5.75;;;;;;;13.43;58.13;101341.80;3597833;80;98841;-83
2021/06/04 02:33:36;;;;;;;11.55;6.35;;;;;;;13.39;58.15;101345.09;3610594;80;31746;-82
2021/06/04 02:38:46;;;;;;;11.57;6.83;;;;;;;13.30;58.33;101334.31;3601801;78;99147;-83
2021/06/04 02:43:58;;;;;;;11.15;6.17;;;;;;;13.11;58.71;101299.89;3623858;79;31597;-83
2021/06/04 02:48:59;;;;;;;10.98;5.70;;;;;;;13.15;59.15;101317.90;3606942;78;99046;-83
2021/06/04 02:54:14;;;;;;;10.93;6.67;;;;;;;13.25;58.79;101345.69;3593249;80;25897;-83
2021/06/04 02:59:38;;;;;;;10.88;5.87;;;;;;;13.07;59.04;101323.09;3602077;79;98682;-83
2021/06/04 03:04:44;;;;;;;10.65;6.12;;;;;;;13.07;59.04;101323.09;3607329;80;31517;-83
2021/06/04 03:09:46;;;;;;;9.78;6.55;;;;;;;13.15;59.52;101336.67;3546896;82;99116;-84
2021/06/04 03:14:51;;;;;;;12.13;6.47;;;;;;;13.13;59.69;101337.61;3547847;82;26491;-84
2021/06/04 03:19:52;;;;;;;9.40;6.15;;;;;;;13.12;59.85;101336.59;3524418;81;99837;-84
2021/06/04 03:24:56;;;;;;;11.90;6.20;;;;;;;13.10;59.92;101336.19;3509266;82;25928;-83
2021/06/04 03:30:08;;;;;;;10.13;6.03;;;;;;;13.11;59.90;101337.77;3544981;79;99020;-83
2021/06/04 03:35:10;;;;;;;11.60;5.83;;;;;;;13.12;60.05;101333.26;3526591;82;29921;-84
2021/06/04 03:40:16;;;;;;;10.32;6.00;;;;;;;13.16;60.28;101327.20;3511929;80;99069;-83
2021/06/04 03:45:23;;;;;;;11.22;6.55;;;;;;;13.19;60.24;101329.21;3504541;82;25950;-83
2021/06/04 03:50:25;;;;;;;10.30;6.33;;;;;;;13.24;60.13;101326.73;3472908;83;99463;-82
2021/06/04 03:55:27;;;;;;;11.90;5.62;;;;;;;13.31;60.35;101323.45;3485990;82;31373;-83
2021/06/04 04:00:37;;;;;;;10.27;6.07;;;;;;;13.37;60.21;101322.56;3472940;82;99243;-83
2021/06/04 04:05:38;;;;;;;10.63;6.00;;;;;;;13.43;60.50;101319.67;3482023;82;31043;-85
2021/06/04 04:10:39;;;;;;;10.00;5.70;;;;;;;13.62;60.36;101322.32;3504622;81;98966;-82
2021/06/04 04:15:44;;;;;;;12.60;5.80;;;;;;;13.62;60.36;101322.32;3508468;82;25950;-84
2021/06/04 04:20:51;;;;;;;9.87;5.57;;;;;;;13.69;60.54;101319.03;3531129;80;98874;-84
2021/06/04 04:25:52;;;;;;;13.78;7.37;;;;;;;13.77;60.70;101320.73;3507562;82;30889;-84
2021/06/04 04:30:54;;;;;;;9.53;5.97;;;;;;;13.82;60.59;101305.75;3532591;80;99500;-84
2021/06/04 04:35:58;;;;;;;14.80;7.10;;;;;;;14.02;60.59;101322.41;3505374;82;30130;-83
2021/06/04 04:41:02;;;;;;;10.68;5.70;;;;;;;14.16;60.67;101315.05;3506459;82;100422;-83
2021/06/04 04:46:08;;;;;;;13.03;5.80;;;;;;;14.31;60.43;101329.28;3531412;81;31792;-82
2021/06/04 04:51:09;;;;;;;11.05;5.80;;;;;;;14.47;60.15;101327.65;3519539;82;99011;-83
2021/06/04 04:56:16;;;;;;;10.80;5.85;;;;;;;14.67;60.00;101335.96;3525228;81;31717;-85
2021/06/04 05:01:19;;;;;;;13.38;5.80;;;;;;;14.86;60.01;101327.40;3518498;81;98887;-84
2021/06/04 05:06:20;;;;;;;10.93;6.20;;;;;;;15.10;59.71;101323.42;3472735;82;27973;-84
2021/06/04 05:11:21;;;;;;;11.53;5.50;;;;;;;15.43;59.73;101318.33;3474745;83;99048;-82
2021/06/04 05:16:22;;;;;;;11.73;5.53;;;;;;;15.91;59.70;101324.69;3505906;82;26879;-82
2021/06/04 05:21:23;;;;;;;13.47;6.00;;;;;;;16.54;58.72;101320.71;3493964;82;99341;-81
2021/06/04 05:26:24;;;;;;;9.47;4.80;;;;;;;17.33;57.85;101328.61;3494919;83;25910;-83
2021/06/04 05:31:25;;;;;;;12.07;5.50;;;;;;;18.15;56.54;101326.54;3581955;80;98602;-82
2021/06/04 05:36:33;;;;;;;10.08;5.37;;;;;;;18.97;55.14;101329.77;3582513;81;27559;-82
2021/06/04 05:41:36;;;;;;;9.25;5.72;;;;;;;19.94;53.93;101324.34;3579008;80;98867;-81
2021/06/04 05:46:37;;;;;;;11.30;5.83;;;;;;;20.99;52.15;101329.17;3582902;81;31653;-83
2021/06/04 05:51:39;;;;;;;11.03;5.70;;;;;;;21.87;50.25;101319.13;3578353;80;98898;-83
2021/06/04 05:56:40;;;;;;;13.35;5.90;;;;;;;22.65;48.51;101326.79;3577085;80;31727;-82
2021/06/04 06:01:42;;;;;;;10.78;5.37;;;;;;;23.30;47.04;101327.56;3578393;80;98549;-81
2021/06/04 06:06:43;;;;;;;9.75;5.60;;;;;;;23.85;44.83;101333.62;3579987;80;32219;-80
2021/06/04 06:11:44;;;;;;;10.58;5.17;;;;;;;24.37;44.60;101334.70;3581698;81;98664;-84
2021/06/04 06:16:46;;;;;;;12.10;4.90;;;;;;;24.99;43.29;101332.49;3583880;80;31928;-82
2021/06/04 06:21:51;;;;;;;10.80;5.50;;;;;;;25.46;42.55;101335.50;3607135;80;98874;-84
2021/06/04 06:26:52;;;;;;;10.38;4.75;;;;;;;25.97;41.18;101336.85;3620131;80;28859;-82
2021/06/04 06:31:53;;;;;;;10.03;4.97;;;;;;;26.42;40.64;101339.15;3614238;80;98625;-83
2021/06/04 06:36:53;;;;;;;8.70;4.42;;;;;;;26.90;39.67;101335.56;3627477;80;31637;-84
2021/06/04 06:41:57;;;;;;;8.53;4.28;;;;;;;27.25;38.33;101340.53;3572824;80;99050;-85
2021/06/04 06:46:58;;;;;;;28.77;5.80;;;;;;;27.66;38.12;101337.10;3569823;80;25946;-84
2021/06/04 06:51:59;;;;;;;8.48;4.10;;;;;;;28.06;37.44;101332.03;3608951;80;98828;-83
2021/06/04 06:57:00;;;;;;;9.33;4.17;;;;;;;28.58;36.33;101336.45;3630706;80;31646;-85
2021/06/04 07:02:06;;;;;;;7.35;3.87;;;;;;;29.07;35.56;101338.27;3621868;80;98944;-83
2021/06/04 07:07:07;;;;;;;9.33;3.90;;;;;;;29.02;34.57;101337.50;3633752;80;26098;-84
2021/06/04 07:12:09;;;;;;;6.67;3.47;;;;;;;29.04;34.04;101342.84;3625069;80;98302;-84
2021/06/04 07:17:10;;;;;;;8.58;4.20;;;;;;;29.05;33.79;101350.73;3623037;80;31621;-84
2021/06/04 07:22:11;;;;;;;9.85;3.85;;;;;;;29.52;33.94;101347.23;3605792;79;98718;-85
2021/06/04 07:27:11;;;;;;;7.10;3.75;;;;;;;30.11;32.62;101348.14;3609862;80;31910;-85
2021/06/04 07:32:12;;;;;;;8.35;3.83;;;;;;;30.37;31.75;101347.70;3608937;79;98607;-84
2021/06/04 07:37:13;;;;;;;8.63;4.05;;;;;;;30.47;31.71;101343.48;3605801;79;31714;-85
2021/06/04 07:42:16;;;;;;;4.85;2.95;;;;;;;30.43;31.40;101345.11;3609253;79;98667;-87
2021/06/04 07:47:17;;;;;;;7.70;3.30;;;;;;;30.54;30.55;101342.44;3619473;80;32238;-85
2021/06/04 07:52:17;;;;;;;5.40;2.50;;;;;;;30.72;29.62;101336.55;3603665;80;98569;-85
2021/06/04 07:57:18;;;;;;;5.97;3.15;;;;;;;30.69;29.95;101330.45;3606624;79;32529;-86
2021/06/04 08:02:20;;;;;;;9.18;3.27;;;;;;;31.28;29.50;101337.48;3618241;78;98693;-81
2021/06/04 08:07:21;;;;;;;6.90;3.00;;;;;;;31.47;28.55;101334.50;3614730;80;32974;-82
2021/06/04 08:12:30;;;;;;;6.70;3.50;;;;;;;31.69;27.93;101335.38;3603226;79;98716;-85
2021/06/04 08:17:27;;;;;;;4.25;2.58;;;;;;;31.49;26.30;101330.50;3613949;80;25882;-85
2021/06/04 08:22:28;;;;;;;8.18;2.80;;;;;;;31.34;26.20;101331.87;3622948;80;99027;-82
2021/06/04 08:27:29;;;;;;;11.43;2.92;;;;;;;31.57;27.43;101328.01;3624040;80;25952;-82
2021/06/04 08:32:30;;;;;;;6.42;2.80;;;;;;;31.95;26.12;101325.62;3586981;79;98668;-86
2021/06/04 08:37:31;;;;;;;9.93;3.08;;;;;;;32.14;26.20;101321.78;3609889;80;26328;-84
2021/06/04 08:43:00;;;;;;;12.60;5.20;;;;;;;32.14;25.98;101317.50;3595164;80;98796;-84
2021/06/04 08:48:09;;;;;;;8.78;2.90;;;;;;;32.10;26.38;101312.01;3592189;80;98672;-83
2021/06/04 08:53:21;;;;;;;9.28;3.55;;;;;;;30.95;26.49;101303.55;3568799;81;25871;-84
2021/06/04 08:58:56;;;;;;;5.42;3.00;;;;;;;31.07;27.10;101309.52;3562524;80;98960;-83
2021/06/04 09:04:09;;;;;;;15.85;7.67;;;;;;;30.90;26.22;101316.38;3572927;80;26252;-84
2021/06/04 09:09:18;;;;;;;11.18;4.17;;;;;;;29.77;28.01;101321.81;3563761;80;98809;-86
2021/06/04 09:14:21;;;;;;;8.10;4.08;;;;;;;29.67;27.71;101324.58;3577137;80;26756;-86
2021/06/04 09:19:36;;;;;;;8.03;3.90;;;;;;;29.92;27.49;101312.03;3552133;80;99008;-85
2021/06/04 09:24:50;;;;;;;11.43;3.70;;;;;;;29.55;27.26;101317.13;3560265;80;25897;-84
2021/06/04 09:30:12;;;;;;;6.73;3.30;;;;;;;29.26;28.00;101314.97;3538694;80;99090;-83
2021/06/04 09:35:18;;;;;;;6.15;3.60;;;;;;;28.76;28.33;101301.73;3512205;81;26548;-83
2021/06/04 09:40:29;;;;;;;5.22;3.22;;;;;;;28.20;28.96;101291.74;3555505;81;99044;-86
2021/06/04 09:45:40;;;;;;;8.05;3.52;;;;;;;27.75;29.20;101289.62;3582817;80;31786;-83
2021/06/04 09:50:45;;;;;;;13.00;3.98;;;;;;;27.20;30.29;101295.92;3584362;79;99074;-83
2021/06/04 09:55:54;;;;;;;12.75;3.70;;;;;;;27.27;30.60;101298.46;3588014;79;25860;-83
2021/06/04 10:01:04;;;;;;;8.38;3.98;;;;;;;27.23;30.88;101295.00;3581359;80;99189;-85
2021/06/04 10:06:17;;;;;;;8.60;3.67;;;;;;;27.32;31.28;101307.73;3594250;81;31685;-85
2021/06/04 10:11:41;;;;;;;7.47;3.58;;;;;;;27.08;31.50;101303.89;3587816;80;98637;-84
2021/06/04 10:22:16;;;;;;;9.15;3.70;;;;;;;26.90;31.68;101305.28;3559319;79;98856;-83
2021/06/04 10:27:28;;;;;;;7.80;3.87;;;;;;;26.85;31.93;101300.25;3556756;80;31781;-84
2021/06/04 10:32:34;;;;;;;10.48;3.85;;;;;;;26.84;31.93;101288.00;3554698;81;98650;-84
2021/06/04 10:37:51;;;;;;;6.70;3.77;;;;;;;27.09;32.13;101291.33;3564515;80;25894;-84
2021/06/04 10:43:43;;;;;;;13.35;3.95;;;;;;;27.61;31.66;101281.78;3562848;81;31671;-84
2021/06/04 10:48:55;;;;;;;7.85;3.80;;;;;;;;;;3559553;81;99251;-85
2021/06/04 10:54:41;;;;;;;8.78;3.70;;;;;;;27.84;31.61;101276.27;3552875;81;31693;-85
2021/06/04 11:00:05;;;;;;;5.83;3.33;;;;;;;28.23;30.78;101268.77;3551447;81;98907;-86
2021/06/04 11:05:33;;;;;;;14.80;4.00;;;;;;;29.13;30.71;101272.54;3570127;81;25994;-82
2021/06/04 11:10:55;;;;;;;8.63;3.12;;;;;;;29.44;30.31;101265.20;3553586;80;98906;-86
2021/06/04 11:16:20;;;;;;;7.05;4.08;;;;;;;29.21;29.15;101267.42;3563592;80;26321;-85
2021/06/04 11:21:42;;;;;;;6.37;3.45;;;;;;;29.26;29.86;101256.06;3574547;80;98796;-85
2021/06/04 11:26:53;;;;;;;6.55;3.08;;;;;;;29.29;29.95;101253.66;3598065;80;26492;-86
2021/06/04 11:32:13;;;;;;;7.75;3.60;;;;;;;29.40;29.70;101240.48;3586292;79;98846;-82
2021/06/04 11:37:34;;;;;;;7.35;3.25;;;;;;;29.18;28.61;101240.69;3590817;80;26302;-85
2021/06/04 11:42:56;;;;;;;9.00;3.17;;;;;;;29.24;29.10;101240.95;3587892;81;98421;-85
2021/06/04 11:48:26;;;;;;;5.62;3.00;;;;;;;29.68;28.62;101229.67;3583399;79;99115;-85
2021/06/04 11:53:35;;;;;;;9.13;3.37;;;;;;;29.99;28.38;101227.91;3392836;84;27966;-86
2021/06/04 11:58:44;;;;;;;6.85;3.42;;;;;;;29.90;28.31;101239.98;3531566;80;99031;-83
2021/06/04 12:04:09;;;;;;;7.08;2.90;;;;;;;30.11;27.96;101231.72;3595653;80;25871;-85
2021/06/04 12:09:36;;;;;;;10.82;3.95;;;;;;;30.19;27.65;101231.48;3584397;79;98554;-86
2021/06/04 12:14:37;;;;;;;8.87;4.33;;;;;;;30.20;27.60;101225.94;3588336;80;25886;-88
2021/06/04 12:19:40;;;;;;;6.30;3.45;;;;;;;30.15;27.79;101226.01;3576725;79;98349;-83
2021/06/04 12:24:48;;;;;;;6.55;2.95;;;;;;;29.67;27.15;101224.64;3602935;81;26722;-83
2021/06/04 12:29:52;;;;;;;16.30;4.33;;;;;;;29.48;27.88;101224.64;3573904;81;98540;-82
2021/06/04 12:35:03;;;;;;;6.37;3.40;;;;;;;29.34;28.08;101216.92;3580241;81;26916;-82
2021/06/04 12:40:34;;;;;;;6.58;3.37;;;;;;;29.26;27.92;101222.80;3574274;79;99225;-82
2021/06/04 12:45:40;;;;;;;8.68;3.60;;;;;;;28.84;28.21;101211.48;3586312;81;25954;-84
2021/06/04 12:50:45;;;;;;;7.28;3.40;;;;;;;28.79;28.49;101202.23;3593002;79;99071;-84
2021/06/04 12:55:54;;;;;;;8.60;3.00;;;;;;;28.92;28.57;101199.91;3592297;80;25894;-83
2021/06/04 13:01:28;;;;;;;5.40;2.90;;;;;;;28.87;28.15;101192.87;3581301;79;99077;-84
2021/06/04 13:06:45;;;;;;;8.28;3.72;;;;;;;28.50;28.52;101186.55;3593949;79;25775;-86
2021/06/04 13:11:47;;;;;;;10.53;3.35;;;;;;;28.55;28.53;101181.63;3583895;79;99015;-84
2021/06/04 13:16:49;;;;;;;8.18;3.50;;;;;;;28.65;28.58;101181.70;3595192;79;26145;-84
2021/06/04 13:21:50;;;;;;;29.00;4.62;;;;;;;28.78;28.63;101180.18;3585071;80;98673;-83
2021/06/04 13:26:54;;;;;;;8.35;3.90;;;;;;;28.46;28.86;101166.91;3595068;79;25869;-85
2021/06/04 13:32:01;;;;;;;7.07;3.60;;;;;;;28.77;29.07;101164.45;3597759;79;98590;-84
2021/06/04 13:37:06;;;;;;;6.75;3.58;;;;;;;28.79;28.93;101166.19;3604281;80;25914;-84
2021/06/04 13:42:16;;;;;;;5.90;3.27;;;;;;;28.75;29.14;101167.00;3586549;80;98690;-86
2021/06/04 13:47:34;;;;;;;6.25;3.17;;;;;;;28.76;28.97;101173.45;3590733;79;26316;-87
2021/06/04 13:52:35;;;;;;;7.03;2.87;;;;;;;28.54;29.22;101188.54;3588166;79;98494;-83
2021/06/04 13:57:37;;;;;;;8.85;2.98;;;;;;;27.68;31.03;101183.23;3574523;81;31712;-83
2021/06/04 14:02:39;;;;;;;6.67;2.72;;;;;;;27.34;31.64;101197.78;3579760;79;98560;-82
2021/06/04 14:07:46;;;;;;;5.50;2.50;;;;;;;26.65;32.60;101192.55;3597102;80;98941;-83
2021/06/04 14:12:48;;;;;;;8.10;2.30;;;;;;;26.23;33.44;101193.53;3607187;81;26272;-85
2021/06/04 14:17:49;;;;;;;6.25;2.50;;;;;;;25.60;34.21;101191.83;3590871;79;99247;-84
2021/06/04 14:22:51;;;;;;;6.78;2.85;;;;;;;25.31;34.80;101192.11;3601290;79;31702;-84
2021/06/04 14:28:05;;;;;;;5.37;2.37;;;;;;;25.11;35.24;101192.25;3588864;79;98836;-84
2021/06/04 14:33:17;;;;;;;5.53;2.52;;;;;;;24.87;35.83;101185.46;3590933;79;27918;-82
2021/06/04 14:38:32;;;;;;;7.97;2.55;;;;;;;24.79;35.99;101181.34;3583892;81;98970;-82
2021/06/04 14:43:35;;;;;;;99.07;42.53;;;;;;;24.70;36.29;101177.02;3589138;81;25914;-83
2021/06/04 14:48:38;;;;;;;23.07;10.68;;;;;;;24.60;36.32;101175.35;3591188;79;99331;-86
2021/06/04 14:53:39;;;;;;;31.35;12.55;;;;;;;24.58;36.67;101175.80;3587894;79;31644;-85
2021/06/04 14:58:41;;;;;;;5.65;3.02;;;;;;;24.59;36.47;101163.33;3582873;79;99174;-86
2021/06/04 15:03:41;;;;;;;42.40;15.80;;;;;;;24.64;36.39;101161.95;3593950;79;31703;-81
2021/06/04 15:08:45;;;;;;;16.52;6.00;;;;;;;24.61;36.68;101156.61;3586711;80;99178;-83
2021/06/04 15:13:46;;;;;;;62.38;23.95;;;;;;;24.58;36.66;101153.28;3586762;80;26003;-82
2021/06/04 15:18:48;;;;;;;41.05;17.52;;;;;;;24.51;37.00;101147.88;3592089;81;99256;-85
2021/06/04 15:23:49;;;;;;;58.78;24.25;;;;;;;24.55;37.42;101139.31;3582905;81;26412;-84
2021/06/04 15:28:51;;;;;;;10.68;4.20;;;;;;;24.52;37.82;101130.38;3598818;81;99265;-83
2021/06/04 15:33:52;;;;;;;19.87;7.65;;;;;;;24.62;37.70;101126.45;3613002;81;31752;-84
2021/06/04 15:38:56;;;;;;;30.88;10.58;;;;;;;24.65;37.82;101124.11;3592565;79;99137;-84
2021/06/04 15:43:58;;;;;;;31.75;14.53;;;;;;;24.67;37.50;101124.42;3599673;81;31750;-85
2021/06/04 15:49:01;;;;;;;12.98;5.12;;;;;;;24.67;38.06;101122.41;3589162;79;98917;-84
2021/06/04 15:54:02;;;;;;;15.20;5.95;;;;;;;24.67;37.64;101117.39;3600942;79;25949;-84
2021/06/04 15:59:04;;;;;;;8.33;2.70;;;;;;;24.63;37.90;101119.56;3591945;81;98845;-84
2021/06/04 16:04:11;;;;;;;7.33;4.05;;;;;;;24.48;38.11;101122.67;3595267;80;31662;-85
2021/06/04 16:09:15;;;;;;;9.98;3.27;;;;;;;24.23;38.76;101133.98;3599537;79;99067;-85
2021/06/04 16:14:16;;;;;;;9.55;2.80;;;;;;;24.02;39.97;101136.09;3610410;81;31586;-83
2021/06/04 16:19:17;;;;;;;7.95;3.17;;;;;;;23.87;40.71;101133.56;3595522;79;98640;-83
2021/06/04 16:24:18;;;;;;;5.30;1.70;;;;;;;23.76;41.14;101135.29;3592115;79;31637;-82
2021/06/04 16:29:20;;;;;;;5.53;2.12;;;;;;;23.69;41.56;101134.72;3565309;81;98989;-85
2021/06/04 16:34:26;;;;;;;5.70;2.20;;;;;;;23.67;42.34;101125.97;3572897;80;31667;-83
2021/06/04 16:39:27;;;;;;;7.72;2.27;;;;;;;23.64;42.36;101128.28;3559827;80;98777;-83
2021/06/04 16:44:28;;;;;;;10.30;2.85;;;;;;;23.70;42.30;101118.82;3571906;80;31646;-83
2021/06/04 16:49:28;;;;;;;7.60;2.45;;;;;;;23.72;42.17;101116.36;3565463;81;98952;-84
2021/06/04 16:54:29;;;;;;;6.97;3.02;;;;;;;23.70;41.86;101111.80;3567921;81;31616;-85
2021/06/04 16:59:30;;;;;;;7.15;2.80;;;;;;;23.67;41.24;101107.70;3567979;80;98766;-83
2021/06/04 17:04:31;;;;;;;10.20;2.85;;;;;;;23.58;41.57;101108.97;3570007;80;31738;-84
2021/06/04 17:09:32;;;;;;;5.55;2.35;;;;;;;23.45;41.21;101098.36;3567181;80;99313;-84
2021/06/04 17:14:33;;;;;;;7.00;2.65;;;;;;;23.32;41.54;101111.61;3566045;81;31767;-82
2021/06/04 17:19:34;;;;;;;8.10;3.10;;;;;;;23.23;41.82;101105.25;3566301;80;98730;-83
2021/06/04 17:24:35;;;;;;;8.70;3.25;;;;;;;23.14;42.17;101100.07;3565671;81;26629;-84
2021/06/04 17:29:36;;;;;;;5.78;2.55;;;;;;;22.98;42.56;101100.94;3568333;80;98825;-85
2021/06/04 17:34:37;;;;;;;7.03;3.05;;;;;;;22.80;42.60;101100.67;3567226;81;34848;-84
2021/06/04 17:39:38;;;;;;;7.28;2.72;;;;;;;22.68;42.78;101087.36;3562990;80;99011;-84
2021/06/04 17:44:38;;;;;;;9.18;2.85;;;;;;;22.66;43.52;101094.04;3565546;80;35506;-85
2021/06/04 17:49:39;;;;;;;5.13;2.33;;;;;;;22.65;43.32;101088.86;3563378;81;99047;-85
2021/06/04 17:54:40;;;;;;;7.40;2.60;;;;;;;22.56;43.93;101088.73;3572092;80;35320;-84
2021/06/04 17:59:41;;;;;;;6.03;2.80;;;;;;;22.54;44.97;101090.57;3564062;81;99085;-85
2021/06/04 18:04:42;;;;;;;7.80;3.58;;;;;;;22.42;45.23;101087.07;3567946;80;26028;-85
2021/06/04 18:09:43;;;;;;;7.72;3.33;;;;;;;22.26;45.55;101085.70;3552690;80;98865;-84
2021/06/04 18:14:44;;;;;;;6.20;3.30;;;;;;;22.14;45.91;101085.02;3570355;81;33814;-84
2021/06/04 18:19:44;;;;;;;6.50;2.83;;;;;;;22.11;46.11;101087.88;3568267;80;98933;-84
2021/06/04 18:24:45;;;;;;;7.40;3.20;;;;;;;22.11;46.11;101087.88;3591254;80;33054;-84
2021/06/04 18:29:46;;;;;;;6.58;3.85;;;;;;;22.07;45.49;101085.80;3603596;80;99363;-84
2021/06/04 18:34:47;;;;;;;6.37;3.40;;;;;;;22.03;46.05;101082.30;3607107;80;32563;-84
2021/06/04 18:39:48;;;;;;;9.10;3.27;;;;;;;21.90;46.23;101078.00;3608532;80;98544;-85
2021/06/04 18:44:49;;;;;;;8.48;3.70;;;;;;;21.77;46.75;101085.55;3609994;79;31663;-84
2021/06/04 18:49:52;;;;;;;10.45;4.37;;;;;;;21.62;47.09;101082.86;3610099;80;98656;-85
2021/06/04 18:54:52;;;;;;;8.98;3.83;;;;;;;21.54;47.65;101088.47;3612125;80;27641;-85
2021/06/04 18:59:53;;;;;;;8.47;3.80;;;;;;;21.35;48.35;101094.09;3601438;80;98814;-85
2021/06/04 19:04:54;;;;;;;12.23;3.80;;;;;;;21.18;49.20;101094.67;3604632;80;26420;-85
2021/06/04 19:09:55;;;;;;;11.40;4.10;;;;;;;21.15;49.52;101094.13;3598573;80;98733;-86
2021/06/04 19:14:55;;;;;;;9.30;3.77;;;;;;;20.97;50.06;101088.13;3613453;80;26435;-85
2021/06/04 19:19:56;;;;;;;10.67;5.03;;;;;;;20.90;50.69;101091.08;3572424;80;99139;-86
2021/06/04 19:24:57;;;;;;;8.97;5.73;;;;;;;20.90;50.76;101101.47;3552492;81;32956;-87
2021/06/04 19:29:58;;;;;;;11.50;6.15;;;;;;;20.69;51.39;101097.66;3538043;80;99080;-86
2021/06/04 19:34:59;;;;;;;10.20;5.60;;;;;;;20.46;52.10;101101.91;3543303;81;29193;-87
2021/06/04 19:40:00;;;;;;;11.43;5.93;;;;;;;20.38;52.36;101103.27;3559532;80;99117;-86
2021/06/04 19:45:01;;;;;;;11.37;6.03;;;;;;;20.37;52.54;101098.27;3595996;79;27228;-86
2021/06/04 19:50:08;;;;;;;10.20;5.90;;;;;;;20.39;52.39;101094.43;3579460;80;98913;-84
2021/06/04 19:55:13;;;;;;;14.18;7.45;;;;;;;20.43;52.25;101105.58;3591355;79;33505;-88
2021/06/04 20:00:20;;;;;;;12.93;6.80;;;;;;;20.36;53.96;101101.48;3594972;79;98937;-88
2021/06/04 20:05:22;;;;;;;10.98;6.15;;;;;;;20.03;54.68;101103.84;3591349;79;32939;-88
2021/06/04 20:10:23;;;;;;;19.40;11.08;;;;;;;19.81;55.16;101106.80;3591741;79;98875;-89
2021/06/04 20:15:25;;;;;;;16.70;8.40;;;;;;;19.70;55.62;101105.58;3595893;79;28202;-87
2021/06/04 20:20:26;;;;;;;18.07;9.18;;;;;;;19.69;55.52;101108.78;3567907;80;99153;-88
2021/06/04 20:25:33;;;;;;;17.23;8.90;;;;;;;19.75;55.78;101104.30;3512604;81;26072;-88
2021/06/04 20:30:35;;;;;;;17.67;8.48;;;;;;;19.74;56.28;101110.52;3469422;82;98792;-88
2021/06/04 20:35:37;;;;;;;14.20;7.65;;;;;;;19.64;56.12;101108.66;3473554;83;33460;-87
2021/06/04 20:40:41;;;;;;;14.83;7.50;;;;;;;19.55;56.04;101097.22;3494084;83;98922;-88
2021/06/04 20:45:50;;;;;;;15.90;7.90;;;;;;;19.54;56.37;101093.45;3517721;81;33051;-87
2021/06/04 20:50:52;;;;;;;14.90;6.40;;;;;;;19.51;56.74;101094.30;3502872;83;99211;-89
2021/06/04 20:55:53;;;;;;;11.68;5.90;;;;;;;19.39;56.94;101090.67;3509785;83;34273;-87
2021/06/04 21:00:54;;;;;;;12.50;6.83;;;;;;;19.29;56.30;101081.24;3440065;83;99424;-88
2021/06/04 21:05:55;;;;;;;14.00;6.47;;;;;;;19.28;56.60;101081.06;3396995;85;29246;-88
2021/06/04 21:10:56;;;;;;;10.40;6.30;;;;;;;19.03;57.42;101072.19;3384326;85;99065;-88
2021/06/04 21:15:57;;;;;;;9.83;6.03;;;;;;;18.86;57.86;101071.81;3389829;84;27997;-89
2021/06/04 21:21:03;;;;;;;13.63;6.70;;;;;;;18.63;58.90;101086.27;3461103;83;98887;-88
2021/06/04 21:26:06;;;;;;;10.50;6.47;;;;;;;18.31;59.37;101082.99;3430665;84;33034;-88
2021/06/04 21:31:14;;;;;;;12.37;6.37;;;;;;;18.16;60.35;101079.53;3434691;83;99054;-87
2021/06/04 21:36:18;;;;;;;11.53;6.15;;;;;;;18.03;61.05;101071.50;3443607;84;33430;-88
2021/06/04 21:41:25;;;;;;;10.60;5.63;;;;;;;18.05;60.84;101078.06;3443234;82;98827;-88
2021/06/04 21:46:28;;;;;;;11.95;6.35;;;;;;;18.00;61.62;101074.32;3444659;84;33814;-89
2021/06/04 21:51:29;;;;;;;14.07;6.75;;;;;;;17.85;62.14;101068.09;3436477;83;99000;-89
2021/06/04 21:56:33;;;;;;;10.70;6.30;;;;;;;17.82;62.17;101073.07;3445570;83;27272;-88
2021/06/04 22:01:36;;;;;;;10.43;5.97;;;;;;;17.83;62.27;101070.47;3557677;80;98931;-88
2021/06/04 22:06:40;;;;;;;13.90;7.08;;;;;;;17.89;62.58;101075.82;3565064;81;32942;-88
2021/06/04 22:11:43;;;;;;;13.13;5.78;;;;;;;17.85;62.80;101070.87;3553296;80;99009;-88
2021/06/04 22:16:44;;;;;;;10.23;6.00;;;;;;;17.75;63.11;101067.57;3564930;80;33008;-89
2021/06/04 22:21:54;;;;;;;18.97;5.80;;;;;;;17.78;63.25;101062.59;3569992;80;98924;-89
2021/06/04 22:26:56;;;;;;;13.80;6.50;;;;;;;17.83;62.94;101065.52;3571118;80;33709;-89
2021/06/04 22:31:57;;;;;;;14.33;6.37;;;;;;;17.82;63.46;101071.68;3606657;79;99035;-88
2021/06/04 22:36:59;;;;;;;13.32;7.00;;;;;;;17.69;64.14;101073.98;3605838;80;32978;-88
2021/06/04 22:42:03;;;;;;;9.60;6.08;;;;;;;17.64;63.72;101071.63;3600034;79;98907;-88
2021/06/04 22:47:06;;;;;;;11.68;6.65;;;;;;;17.70;63.75;101069.39;3588324;81;33408;-89
2021/06/04 22:52:07;;;;;;;13.98;8.00;;;;;;;17.74;64.09;101061.81;3592419;79;98823;-89
2021/06/04 22:57:08;;;;;;;12.87;7.63;;;;;;;17.72;64.93;101067.60;3580560;79;26600;-88
2021/06/04 23:02:09;;;;;;;12.47;8.00;;;;;;;17.56;65.22;101063.15;3594748;79;98771;-88
2021/06/04 23:07:20;;;;;;;13.37;7.90;;;;;;;17.55;64.79;101055.39;3597861;81;25945;-87
2021/06/04 23:12:21;;;;;;;11.75;7.08;;;;;;;17.62;65.19;101055.36;3570059;79;99036;-88
2021/06/04 23:17:22;;;;;;;12.60;7.70;;;;;;;17.61;65.28;101059.94;3599255;79;25873;-89
2021/06/04 23:22:23;;;;;;;12.10;7.93;;;;;;;17.53;65.90;101061.17;3586619;80;98691;-88
2021/06/04 23:27:24;;;;;;;14.83;8.30;;;;;;;17.50;65.95;101055.05;3589684;79;31665;-88
2021/06/04 23:32:29;;;;;;;13.80;7.60;;;;;;;17.51;65.90;101058.02;3586860;79;99155;-88
2021/06/04 23:37:36;;;;;;;11.78;6.70;;;;;;;17.54;65.76;101053.03;3589955;81;33574;-89
2021/06/04 23:42:39;;;;;;;11.60;6.93;;;;;;;17.52;65.94;101051.23;3583098;80;98677;-89